Time;durP1;ratioP1;P1;durP2;ratioP2;P2;SDS_P1;SDS_P2;PMS_P1;PMS_P2;Temp;Humidity;BMP_temperature;BMP_pressure;BME280_temperature;BME280_humidity;BME280_pressure;Samples;Min_cycle;Max_cycle;Signal;HPM_P1;HPM_P2
2022/08/14 00:00:35;;;;;;;4.47;3.40;;;25.50;46.00;;;;;;5023861;28;20033;-67
2022/08/14 00:03:00;;;;;;;3.10;2.80;;;25.50;46.10;;;;;;5026213;28;20029;-67
2022/08/14 00:05:26;;;;;;;5.22;3.55;;;25.50;45.80;;;;;;5014572;28;20178;-67
2022/08/14 00:07:51;;;;;;;3.78;3.42;;;25.40;46.30;;;;;;5013449;28;20463;-67
2022/08/14 00:10:20;;;;;;;6.45;3.83;;;25.40;46.60;;;;;;5012918;28;20061;-67
2022/08/14 00:12:53;;;;;;;4.65;3.67;;;25.30;46.80;;;;;;5012870;28;20037;-67
2022/08/14 00:15:26;;;;;;;4.10;3.55;;;25.30;46.90;;;;;;5012988;28;20033;-68
2022/08/14 00:17:52;;;;;;;5.07;3.88;;;25.20;47.10;;;;;;5013441;28;20042;-67
2022/08/14 00:20:23;;;;;;;3.50;3.20;;;25.20;47.30;;;;;;5012993;28;20026;-67
2022/08/14 00:22:49;;;;;;;7.50;3.75;;;25.20;47.10;;;;;;5013465;28;20053;-67
2022/08/14 00:25:14;;;;;;;4.30;3.90;;;25.10;47.50;;;;;;5012924;28;20026;-66
2022/08/14 00:27:40;;;;;;;4.85;4.20;;;25.10;47.80;;;;;;5028323;28;20013;-67
2022/08/14 00:30:08;;;;;;;5.47;3.80;;;25.00;48.00;;;;;;5013041;28;20543;-67
2022/08/14 00:32:34;;;;;;;4.68;3.60;;;24.90;48.30;;;;;;4993382;28;20045;-67
2022/08/14 00:35:00;;;;;;;4.70;3.60;;;24.90;48.60;;;;;;5005011;28;20061;-67
2022/08/14 00:37:27;;;;;;;4.82;4.32;;;24.90;48.40;;;;;;5013014;28;20041;-67
2022/08/14 00:39:53;;;;;;;6.90;4.68;;;24.90;48.60;;;;;;5013106;28;20026;-68
2022/08/14 00:42:19;;;;;;;5.97;3.90;;;24.80;48.80;;;;;;5012604;28;20096;-67
2022/08/14 00:44:45;;;;;;;4.43;3.92;;;24.80;49.10;;;;;;5012692;28;20021;-68
2022/08/14 00:47:13;;;;;;;5.70;4.00;;;24.70;49.30;;;;;;5012846;28;20032;-68
2022/08/14 00:49:39;;;;;;;3.92;3.53;;;24.70;49.50;;;;;;5012858;28;20073;-68
2022/08/14 00:52:05;;;;;;;6.63;3.90;;;24.60;49.20;;;;;;5012505;28;20417;-68
2022/08/14 00:54:31;;;;;;;4.57;3.90;;;24.60;49.80;;;;;;5012128;28;20026;-67
2022/08/14 00:56:56;;;;;;;4.45;3.85;;;24.50;49.60;;;;;;5013036;28;20040;-67
2022/08/14 00:59:27;;;;;;;4.82;4.28;;;24.50;50.00;;;;;;5012661;28;20495;-66
2022/08/14 01:01:58;;;;;;;5.57;4.07;;;24.40;50.40;;;;;;5012325;28;20026;-67
2022/08/14 01:04:25;;;;;;;4.32;3.92;;;24.40;50.70;;;;;;5012747;28;20635;-68
2022/08/14 01:06:52;;;;;;;4.85;4.35;;;24.30;50.50;;;;;;5012397;28;20041;-67
2022/08/14 01:09:21;;;;;;;6.10;3.70;;;24.30;50.70;;;;;;5012294;28;20040;-67
2022/08/14 01:11:51;;;;;;;4.13;3.70;;;24.30;50.60;;;;;;5010920;28;20030;-66
2022/08/14 01:14:18;;;;;;;4.80;4.25;;;24.30;50.70;;;;;;5011524;28;20113;-67
2022/08/14 01:16:44;;;;;;;5.38;3.95;;;24.20;51.10;;;;;;5012069;28;20038;-67
2022/08/14 01:21:54;;;;;;;4.10;3.70;;;24.20;50.80;;;;;;5012777;28;20100;-68
2022/08/14 01:24:21;;;;;;;6.68;4.40;;;24.20;51.10;;;;;;5011697;28;20022;-68
2022/08/14 01:26:46;;;;;;;4.05;3.63;;;24.20;51.20;;;;;;5010809;28;20022;-67
2022/08/14 01:29:13;;;;;;;4.55;4.15;;;24.10;51.20;;;;;;5012206;28;20480;-68
2022/08/14 01:31:45;;;;;;;5.45;4.88;;;24.10;51.50;;;;;;5012273;28;20030;-67
2022/08/14 01:34:12;;;;;;;6.15;4.47;;;24.10;51.80;;;;;;5001648;28;20408;-68
2022/08/14 01:36:37;;;;;;;4.32;3.88;;;24.00;51.90;;;;;;5012277;28;20022;-68
2022/08/14 01:39:10;;;;;;;6.32;4.30;;;24.00;52.60;;;;;;5011893;28;20109;-68
2022/08/14 01:41:36;;;;;;;5.15;4.47;;;23.90;52.00;;;;;;5011031;28;20068;-68
2022/08/14 01:44:11;;;;;;;4.65;4.20;;;23.90;52.20;;;;;;5011786;28;20026;-67
2022/08/14 01:46:39;;;;;;;6.40;4.40;;;23.90;52.40;;;;;;5011831;28;20435;-67
2022/08/14 01:49:06;;;;;;;5.07;4.43;;;23.80;52.30;;;;;;5011958;28;20026;-67
2022/08/14 01:51:33;;;;;;;4.95;4.00;;;23.80;52.40;;;;;;5011704;28;20053;-66
2022/08/14 01:54:04;;;;;;;4.95;3.70;;;23.80;52.70;;;;;;5011370;28;20392;-66
2022/08/14 01:56:35;;;;;;;5.78;4.47;;;23.70;52.70;;;;;;5009479;28;20480;-69
2022/08/14 01:59:01;;;;;;;5.20;4.70;;;23.70;53.00;;;;;;5011017;28;20026;-67
2022/08/14 02:01:26;;;;;;;4.30;3.90;;;23.70;53.30;;;;;;5011383;28;20083;-68
2022/08/14 02:03:52;;;;;;;5.68;5.03;;;23.60;53.20;;;;;;5011288;28;20673;-68
2022/08/14 02:06:18;;;;;;;5.25;4.55;;;23.60;53.40;;;;;;5011713;28;20034;-68
2022/08/14 02:08:43;;;;;;;5.63;4.63;;;23.60;53.50;;;;;;5010416;28;20026;-68
2022/08/14 02:11:16;;;;;;;4.80;4.30;;;23.50;53.50;;;;;;5010359;28;20116;-68
2022/08/14 02:13:47;;;;;;;4.95;4.43;;;23.50;53.40;;;;;;5011030;28;20049;-67
2022/08/14 02:16:15;;;;;;;8.55;4.35;;;23.60;53.40;;;;;;5010753;28;20036;-68
2022/08/14 02:18:41;;;;;;;5.10;3.80;;;23.50;53.40;;;;;;5011180;28;20050;-68
2022/08/14 02:21:07;;;;;;;5.40;4.22;;;23.50;53.50;;;;;;5010941;28;20117;-68
2022/08/14 02:23:32;;;;;;;4.55;3.90;;;23.50;53.70;;;;;;5025583;28;20172;-68
2022/08/14 02:26:00;;;;;;;5.05;4.55;;;23.50;53.60;;;;;;5010583;28;20026;-67
2022/08/14 02:28:29;;;;;;;4.95;3.88;;;23.50;53.50;;;;;;5010976;28;20381;-68
2022/08/14 02:30:55;;;;;;;5.05;4.20;;;23.50;53.40;;;;;;5010887;28;20036;-68
2022/08/14 02:33:22;;;;;;;5.82;4.88;;;23.50;53.60;;;;;;5010806;28;20693;-68
2022/08/14 02:35:48;;;;;;;10.52;7.43;;;23.40;53.70;;;;;;5010597;28;20030;-68
2022/08/14 02:38:14;;;;;;;6.95;5.75;;;23.40;54.00;;;;;;5010599;28;20029;-67
2022/08/14 02:40:39;;;;;;;5.90;4.90;;;23.30;54.20;;;;;;5010037;28;20096;-68
2022/08/14 02:43:05;;;;;;;6.10;4.70;;;23.30;54.30;;;;;;5010427;28;20033;-67
2022/08/14 02:45:32;;;;;;;5.70;4.90;;;23.30;54.30;;;;;;5010543;28;20025;-67
2022/08/14 02:48:00;;;;;;;5.43;4.53;;;23.20;54.50;;;;;;5010369;28;20137;-67
2022/08/14 02:50:25;;;;;;;5.80;4.30;;;23.20;54.70;;;;;;5010841;28;20022;-68
2022/08/14 02:52:52;;;;;;;4.60;4.10;;;23.20;54.70;;;;;;5010474;28;20026;-67
2022/08/14 02:55:18;;;;;;;7.95;4.70;;;23.20;54.70;;;;;;5010785;28;20413;-68
2022/08/14 02:57:44;;;;;;;4.68;4.25;;;23.10;54.80;;;;;;5010111;28;20049;-68
2022/08/14 03:00:12;;;;;;;4.95;4.45;;;23.10;54.70;;;;;;5010620;28;20022;-68
2022/08/14 03:02:37;;;;;;;5.03;4.22;;;23.10;54.70;;;;;;5010055;28;20026;-69
2022/08/14 03:05:03;;;;;;;5.65;5.05;;;23.10;54.90;;;;;;5010124;28;20018;-68
2022/08/14 03:07:29;;;;;;;5.40;4.38;;;23.10;55.30;;;;;;5009022;28;20022;-68
2022/08/14 03:09:54;;;;;;;5.68;4.65;;;23.10;55.40;;;;;;5010094;28;20511;-68
2022/08/14 03:12:21;;;;;;;4.72;4.28;;;23.00;55.40;;;;;;5010542;28;20034;-67
2022/08/14 03:14:51;;;;;;;6.80;4.35;;;23.00;55.20;;;;;;5009645;28;20112;-67
2022/08/14 03:17:17;;;;;;;4.57;4.07;;;23.00;55.30;;;;;;5009050;28;20420;-67
2022/08/14 03:19:42;;;;;;;5.00;4.50;;;23.00;55.20;;;;;;5010027;28;20366;-67
2022/08/14 03:22:08;;;;;;;5.00;4.22;;;23.00;55.20;;;;;;5009784;28;20105;-68
2022/08/14 03:24:35;;;;;;;6.78;4.57;;;23.10;55.20;;;;;;5009845;28;20026;-68
2022/08/14 03:27:01;;;;;;;5.47;4.75;;;23.10;55.20;;;;;;5009867;28;20026;-67
2022/08/14 03:29:27;;;;;;;4.68;4.22;;;23.00;55.40;;;;;;5010009;28;20026;-68
2022/08/14 03:31:54;;;;;;;5.00;4.47;;;22.90;55.40;;;;;;5010100;28;20053;-69
2022/08/14 03:34:23;;;;;;;4.20;3.80;;;23.00;55.60;;;;;;5010420;28;20026;-66
2022/08/14 03:36:57;;;;;;;5.72;4.10;;;22.90;55.60;;;;;;5014356;28;20054;-68
2022/08/14 03:39:23;;;;;;;5.25;4.75;;;22.80;55.70;;;;;;5012706;28;20379;-68
2022/08/14 03:41:51;;;;;;;4.95;4.45;;;22.80;56.00;;;;;;5013946;28;20117;-68
2022/08/14 03:44:18;;;;;;;4.95;4.45;;;22.70;56.20;;;;;;5014037;28;20022;-68
2022/08/14 03:46:43;;;;;;;5.28;4.78;;;22.70;56.40;;;;;;5014509;28;20024;-68
2022/08/14 03:49:09;;;;;;;5.30;4.80;;;22.70;56.60;;;;;;5014245;28;20101;-68
2022/08/14 03:51:36;;;;;;;6.53;5.82;;;22.60;56.60;;;;;;5013677;28;20022;-68
2022/08/14 03:54:04;;;;;;;6.43;5.05;;;22.60;57.20;;;;;;5013615;28;20646;-68
2022/08/14 03:56:30;;;;;;;5.95;5.13;;;22.60;57.10;;;;;;5013854;28;20029;-66
2022/08/14 03:59:10;;;;;;;7.10;5.50;;;22.50;57.10;;;;;;5014328;28;20060;-68
2022/08/14 04:01:38;;;;;;;5.43;4.80;;;22.50;57.40;;;;;;5013435;28;20036;-69
2022/08/14 04:04:05;;;;;;;6.00;4.90;;;22.50;57.30;;;;;;5013777;28;20071;-68
2022/08/14 04:06:32;;;;;;;5.47;4.97;;;22.50;57.30;;;;;;5013445;28;20022;-67
2022/08/14 04:08:58;;;;;;;5.50;5.00;;;22.50;57.40;;;;;;5013435;28;20476;-69
2022/08/14 04:11:24;;;;;;;5.95;5.35;;;22.50;57.60;;;;;;5013286;28;20036;-68
2022/08/14 04:13:49;;;;;;;6.28;5.65;;;22.40;57.80;;;;;;5013584;28;20037;-68
2022/08/14 04:16:19;;;;;;;5.80;5.20;;;22.40;57.90;;;;;;5013667;28;20219;-67
2022/08/14 04:18:47;;;;;;;5.50;5.00;;;22.40;57.90;;;;;;5013262;28;20088;-68
2022/08/14 04:21:14;;;;;;;8.65;6.05;;;22.30;58.00;;;;;;5013090;28;20025;-67
2022/08/14 04:23:41;;;;;;;6.10;5.32;;;22.30;58.00;;;;;;5012880;28;20041;-68
2022/08/14 04:26:09;;;;;;;8.27;5.78;;;22.30;58.00;;;;;;5013107;28;20025;-68
2022/08/14 04:28:36;;;;;;;6.68;5.60;;;22.30;58.10;;;;;;5013216;28;20029;-68
2022/08/14 04:31:02;;;;;;;6.03;5.53;;;22.30;58.20;;;;;;5013471;28;20105;-66
2022/08/14 04:33:28;;;;;;;6.28;5.68;;;22.30;58.30;;;;;;5013066;28;20100;-66
2022/08/14 04:35:54;;;;;;;6.38;5.63;;;22.20;58.40;;;;;;5012826;28;20038;-67
2022/08/14 04:43:50;;;;;;;6.25;5.65;;;22.20;58.70;;;;;;5012789;28;20061;-67
2022/08/14 04:46:19;;;;;;;6.68;5.30;;;22.20;58.90;;;;;;5012302;28;20026;-67
2022/08/14 04:48:45;;;;;;;5.90;4.85;;;22.10;58.70;;;;;;5012747;28;20026;-68
2022/08/14 04:51:12;;;;;;;6.47;5.70;;;22.20;58.60;;;;;;5012614;28;20026;-68
2022/08/14 04:53:42;;;;;;;5.32;4.82;;;22.20;58.70;;;;;;5012539;28;20440;-67
2022/08/14 04:56:10;;;;;;;5.93;4.75;;;22.20;58.60;;;;;;5012515;28;20021;-67
2022/08/14 04:58:36;;;;;;;5.30;4.80;;;22.30;58.40;;;;;;5013043;28;20432;-67
2022/08/14 05:01:05;;;;;;;5.97;5.38;;;22.30;58.40;;;;;;5012631;28;20022;-68
2022/08/14 05:03:34;;;;;;;5.45;4.95;;;22.30;58.50;;;;;;5012392;28;20026;-67
2022/08/14 05:06:03;;;;;;;8.93;5.70;;;22.30;58.40;;;;;;5012569;28;20104;-67
2022/08/14 05:08:30;;;;;;;7.07;6.00;;;22.30;58.60;;;;;;4999207;28;20092;-66
2022/08/14 05:10:57;;;;;;;6.70;5.75;;;22.30;58.60;;;;;;5012025;28;20034;-66
2022/08/14 05:13:26;;;;;;;5.65;5.15;;;22.30;58.60;;;;;;5012127;28;20480;-67
2022/08/14 05:15:54;;;;;;;5.88;5.13;;;22.30;58.70;;;;;;5011694;28;20033;-68
2022/08/14 05:18:22;;;;;;;6.82;6.00;;;22.30;58.70;;;;;;5012149;28;20080;-68
2022/08/14 05:20:51;;;;;;;7.25;5.75;;;22.30;58.70;;;;;;5012067;28;20026;-67
2022/08/14 05:23:20;;;;;;;5.95;5.35;;;22.30;58.60;;;;;;5012292;28;20021;-67
2022/08/14 05:25:47;;;;;;;6.35;5.40;;;22.40;59.20;;;;;;5002474;28;20029;-68
2022/08/14 05:28:20;;;;;;;6.05;5.35;;;22.40;58.60;;;;;;5012357;28;20025;-68
2022/08/14 05:30:52;;;;;;;5.80;5.18;;;22.40;58.70;;;;;;5011420;28;20128;-68
2022/08/14 05:33:19;;;;;;;6.38;5.60;;;22.40;58.70;;;;;;5012066;28;20018;-67
2022/08/14 05:35:46;;;;;;;6.13;5.53;;;22.50;58.90;;;;;;5011512;28;20018;-66
2022/08/14 05:38:15;;;;;;;5.70;5.20;;;23.10;58.10;;;;;;5011917;28;20018;-68
2022/08/14 05:40:45;;;;;;;6.97;5.15;;;24.10;56.00;;;;;;5011727;28;20022;-68
2022/08/14 05:43:12;;;;;;;6.00;5.40;;;25.00;53.70;;;;;;5011634;28;20040;-67
2022/08/14 05:45:38;;;;;;;6.05;4.85;;;25.80;52.10;;;;;;5011762;28;20014;-68
2022/08/14 05:48:05;;;;;;;6.13;5.03;;;26.30;50.50;;;;;;5011279;28;20033;-68
2022/08/14 05:50:32;;;;;;;6.30;5.65;;;26.80;49.60;;;;;;5011603;28;20072;-68
2022/08/14 05:52:58;;;;;;;5.70;4.97;;;27.10;48.50;;;;;;5011605;28;20056;-67
2022/08/14 05:55:24;;;;;;;5.88;5.28;;;27.70;47.80;;;;;;5011883;28;20421;-68
2022/08/14 05:57:56;;;;;;;5.93;5.03;;;28.20;46.80;;;;;;5010905;28;20068;-66
2022/08/14 06:00:24;;;;;;;7.57;4.18;;;28.50;46.00;;;;;;5011841;28;20029;-68
2022/08/14 06:02:49;;;;;;;5.78;5.18;;;29.10;45.20;;;;;;5011673;28;20049;-68
2022/08/14 06:05:15;;;;;;;5.10;4.60;;;29.30;44.40;;;;;;5011163;28;20428;-68
2022/08/14 06:07:41;;;;;;;5.68;5.07;;;29.40;44.00;;;;;;5010373;28;20497;-68
2022/08/14 06:10:08;;;;;;;4.88;4.40;;;29.50;43.60;;;;;;5011291;28;20026;-68
2022/08/14 06:12:35;;;;;;;5.30;4.80;;;30.00;43.30;;;;;;5011141;28;20034;-68
2022/08/14 06:15:01;;;;;;;5.07;4.28;;;30.10;42.60;;;;;;5011127;28;20069;-67
2022/08/14 06:17:26;;;;;;;6.38;5.10;;;30.40;42.40;;;;;;5001992;28;20057;-67
2022/08/14 06:19:52;;;;;;;5.07;4.50;;;30.50;41.90;;;;;;5009237;28;20410;-68
2022/08/14 06:22:19;;;;;;;5.00;4.50;;;31.10;41.60;;;;;;5007637;28;20030;-68
2022/08/14 06:24:44;;;;;;;4.88;4.30;;;31.30;40.90;;;;;;5008838;28;20022;-67
2022/08/14 06:27:10;;;;;;;4.43;3.97;;;31.10;41.00;;;;;;5005718;28;20064;-67
2022/08/14 06:29:37;;;;;;;4.82;4.10;;;31.50;40.80;;;;;;5003717;28;20042;-67
2022/08/14 06:32:03;;;;;;;5.30;4.70;;;32.20;40.20;;;;;;5002709;28;20018;-68
2022/08/14 06:34:29;;;;;;;5.50;4.60;;;32.10;39.40;;;;;;5008602;28;20113;-67
2022/08/14 06:36:55;;;;;;;5.10;4.60;;;31.90;39.70;;;;;;5008125;28;20129;-67
2022/08/14 06:39:22;;;;;;;4.90;4.40;;;31.60;40.00;;;;;;5006380;28;20120;-67
2022/08/14 06:41:47;;;;;;;4.78;4.20;;;31.40;40.40;;;;;;5003636;28;20080;-67
2022/08/14 06:44:13;;;;;;;6.13;4.70;;;31.90;40.40;;;;;;5011556;28;20022;-68
2022/08/14 06:46:39;;;;;;;5.78;4.90;;;32.20;39.50;;;;;;5008026;28;20509;-68
2022/08/14 06:49:05;;;;;;;8.20;5.15;;;32.30;39.20;;;;;;5007419;28;20044;-68
2022/08/14 06:51:31;;;;;;;4.95;4.47;;;32.60;38.90;;;;;;5005623;28;20489;-68
2022/08/14 06:53:56;;;;;;;4.70;4.30;;;33.00;38.60;;;;;;5006403;28;20034;-67
2022/08/14 06:56:22;;;;;;;5.82;5.22;;;33.10;38.50;;;;;;5007636;28;20071;-68
2022/08/14 06:58:48;;;;;;;6.90;5.35;;;32.90;38.30;;;;;;5010060;28;20081;-67
2022/08/14 07:06:42;;;;;;;5.68;5.18;;;32.30;39.40;;;;;;5009054;28;20076;-67
2022/08/14 07:09:09;;;;;;;5.93;5.32;;;32.10;39.30;;;;;;5009364;28;20025;-67
2022/08/14 07:11:35;;;;;;;5.63;5.13;;;32.00;39.60;;;;;;5011854;28;20044;-67
2022/08/14 07:14:01;;;;;;;5.65;4.75;;;32.20;39.70;;;;;;5008662;28;20026;-67
2022/08/14 07:16:27;;;;;;;6.65;6.05;;;32.40;39.50;;;;;;5012168;28;20018;-67
2022/08/14 07:18:53;;;;;;;6.07;5.43;;;32.20;39.40;;;;;;5008811;28;20034;-67
2022/08/14 07:21:18;;;;;;;6.78;5.00;;;32.50;39.60;;;;;;5013488;28;20020;-67
2022/08/14 07:23:44;;;;;;;6.80;5.97;;;32.80;39.30;;;;;;5008744;28;20026;-68
2022/08/14 07:26:09;;;;;;;7.82;6.30;;;32.80;39.00;;;;;;5010139;28;20018;-68
2022/08/14 07:28:37;;;;;;;6.38;5.68;;;32.80;38.80;;;;;;5010907;28;20026;-68
2022/08/14 07:31:05;;;;;;;5.97;5.47;;;32.80;38.80;;;;;;5009503;28;20065;-68
2022/08/14 07:33:36;;;;;;;6.65;5.90;;;32.40;39.30;;;;;;5010180;28;20649;-68
2022/08/14 07:36:05;;;;;;;6.97;5.70;;;32.50;39.30;;;;;;5007109;28;20432;-67
2022/08/14 07:38:31;;;;;;;7.43;5.60;;;32.30;39.60;;;;;;5009808;28;20026;-68
2022/08/14 07:40:58;;;;;;;6.75;5.45;;;32.50;39.60;;;;;;5007376;28;20107;-68
2022/08/14 07:43:24;;;;;;;6.40;5.75;;;32.60;39.50;;;;;;5007908;28;20051;-68
2022/08/14 07:45:50;;;;;;;6.85;6.15;;;32.60;39.50;;;;;;5022125;28;20026;-68
2022/08/14 07:48:15;;;;;;;7.75;5.70;;;32.10;40.00;;;;;;5008224;28;20022;-67
2022/08/14 07:50:42;;;;;;;6.03;5.43;;;32.10;40.50;;;;;;5011624;28;20026;-67
2022/08/14 07:53:07;;;;;;;8.18;5.65;;;32.40;40.30;;;;;;5008840;28;20017;-68
2022/08/14 07:55:34;;;;;;;4.97;4.55;;;32.20;40.40;;;;;;5009806;28;20034;-67
2022/08/14 07:58:00;;;;;;;6.88;6.18;;;32.10;41.00;;;;;;5008132;28;20068;-68
2022/08/14 08:00:27;;;;;;;6.78;5.80;;;31.80;41.20;;;;;;5009673;28;20433;-67
2022/08/14 08:02:54;;;;;;;5.95;5.20;;;31.30;41.90;;;;;;5008930;28;20037;-68
2022/08/14 08:05:23;;;;;;;5.93;5.32;;;31.20;42.50;;;;;;5009262;28;20033;-68
2022/08/14 08:07:49;;;;;;;6.50;5.40;;;31.10;42.80;;;;;;5007817;28;20018;-68
2022/08/14 08:10:30;;;;;;;7.28;5.80;;;31.20;43.00;;;;;;5008064;28;20022;-68
2022/08/14 08:13:20;;;;;;;7.90;6.95;;;30.60;43.50;;;;;;5008306;28;20024;-68
2022/08/14 08:15:48;;;;;;;7.55;6.75;;;30.10;44.50;;;;;;5008094;28;20030;-68
2022/08/14 08:18:16;;;;;;;9.18;6.38;;;29.60;45.20;;;;;;5007959;28;20087;-69
2022/08/14 08:20:47;;;;;;;9.52;6.60;;;29.30;45.70;;;;;;5012411;28;20135;-68
2022/08/14 08:23:15;;;;;;;7.07;5.97;;;29.10;46.00;;;;;;5015264;28;20030;-67
2022/08/14 08:25:43;;;;;;;5.70;5.10;;;28.60;46.60;;;;;;5012487;28;20108;-68
2022/08/14 08:28:14;;;;;;;8.50;5.85;;;28.60;46.80;;;;;;5011819;28;20387;-68
2022/08/14 08:30:41;;;;;;;4.65;4.15;;;28.60;46.70;;;;;;5012942;28;20033;-68
2022/08/14 08:33:13;;;;;;;5.03;4.45;;;28.70;46.90;;;;;;5012852;28;20034;-68
2022/08/14 08:35:39;;;;;;;6.07;5.30;;;28.80;46.60;;;;;;5012415;28;20073;-68
2022/08/14 08:38:19;;;;;;;5.20;4.60;;;29.00;46.50;;;;;;5013581;28;20064;-68
2022/08/14 08:40:47;;;;;;;6.78;5.53;;;29.10;46.30;;;;;;5011422;28;20049;-69
2022/08/14 08:43:24;;;;;;;7.28;5.43;;;29.10;46.20;;;;;;5011704;28;20811;-68
2022/08/14 08:46:00;;;;;;;6.50;5.60;;;29.10;46.10;;;;;;5013183;28;20026;-69
2022/08/14 08:48:28;;;;;;;6.93;6.22;;;29.10;46.20;;;;;;5009756;28;20030;-67
2022/08/14 08:50:57;;;;;;;7.15;6.40;;;29.10;46.20;;;;;;5011447;28;20608;-67
2022/08/14 08:53:28;;;;;;;6.88;5.78;;;29.20;46.20;;;;;;5010956;28;20021;-68
2022/08/14 08:55:54;;;;;;;7.50;5.80;;;29.00;46.40;;;;;;5011431;28;20109;-68
2022/08/14 08:58:20;;;;;;;6.13;5.30;;;28.90;46.60;;;;;;5013935;28;20025;-67
2022/08/14 09:00:50;;;;;;;6.18;4.97;;;29.00;46.60;;;;;;5009106;28;20401;-69
2022/08/14 09:03:19;;;;;;;4.97;4.13;;;29.10;46.40;;;;;;5009097;28;20017;-67
2022/08/14 09:06:02;;;;;;;5.88;5.25;;;29.40;46.20;;;;;;5011080;28;20025;-68
2022/08/14 09:08:36;;;;;;;5.05;4.50;;;29.60;45.90;;;;;;5007911;28;20076;-68
2022/08/14 09:11:05;;;;;;;6.22;5.35;;;29.80;45.60;;;;;;5010957;28;20076;-67
2022/08/14 09:13:31;;;;;;;5.28;4.78;;;30.00;45.30;;;;;;5014194;28;20560;-68
2022/08/14 09:15:58;;;;;;;5.40;4.90;;;30.00;45.10;;;;;;5012312;28;20109;-67
2022/08/14 09:18:26;;;;;;;5.20;4.70;;;30.00;45.00;;;;;;5010728;28;20029;-67
2022/08/14 09:20:53;;;;;;;5.53;4.75;;;30.10;44.70;;;;;;5012198;28;20018;-66
2022/08/14 09:23:19;;;;;;;5.28;4.30;;;30.20;44.60;;;;;;5024118;28;20018;-66
2022/08/14 09:25:47;;;;;;;5.20;4.65;;;30.40;44.50;;;;;;5010494;28;20034;-66
2022/08/14 09:28:16;;;;;;;6.20;4.60;;;30.50;43.80;;;;;;5013182;28;20022;-67
2022/08/14 09:30:47;;;;;;;5.20;4.10;;;30.40;43.60;;;;;;5010204;28;20062;-67
2022/08/14 09:33:51;;;;;;;4.70;4.30;;;30.50;43.60;;;;;;5012270;28;20014;-68
2022/08/14 09:36:42;;;;;;;5.57;5.03;;;30.50;43.80;;;;;;5010594;28;20041;-66
2022/08/14 09:39:47;;;;;;;6.45;5.35;;;30.60;43.70;;;;;;5011019;28;20022;-67
2022/08/14 09:42:34;;;;;;;5.15;4.65;;;30.40;43.00;;;;;;5011065;28;20033;-67
2022/08/14 09:45:11;;;;;;;4.75;4.35;;;30.40;43.30;;;;;;5013901;28;20026;-67
2022/08/14 09:47:56;;;;;;;5.75;4.75;;;30.50;43.20;;;;;;5014520;28;20033;-67
2022/08/14 09:50:31;;;;;;;5.88;4.65;;;30.60;43.00;;;;;;5009759;28;20026;-67
2022/08/14 09:53:03;;;;;;;6.18;4.85;;;30.60;42.70;;;;;;5011317;28;20099;-68
2022/08/14 09:55:32;;;;;;;5.10;4.57;;;30.50;42.60;;;;;;5009243;28;20073;-68
2022/08/14 09:58:12;;;;;;;5.63;4.55;;;30.60;42.70;;;;;;5011999;28;20097;-68
2022/08/14 10:00:45;;;;;;;5.65;4.88;;;30.40;42.40;;;;;;5005052;28;20030;-68
2022/08/14 10:03:10;;;;;;;6.40;4.85;;;30.30;42.50;;;;;;5008936;28;20073;-68
2022/08/14 10:05:37;;;;;;;5.00;4.50;;;30.30;42.60;;;;;;5008303;28;20433;-67
2022/08/14 10:08:04;;;;;;;5.55;4.55;;;30.30;42.50;;;;;;5008190;28;20597;-67
2022/08/14 10:10:38;;;;;;;7.20;4.60;;;30.30;42.50;;;;;;5013415;28;20414;-67
2022/08/14 10:13:20;;;;;;;4.90;4.50;;;30.30;42.80;;;;;;5010776;28;20042;-67
2022/08/14 10:15:47;;;;;;;6.07;5.00;;;30.40;42.80;;;;;;5009846;28;20022;-68
2022/08/14 10:18:15;;;;;;;5.88;4.45;;;30.50;42.50;;;;;;5009777;28;20141;-68
2022/08/14 10:20:45;;;;;;;4.82;4.43;;;30.70;42.10;;;;;;5009666;28;20049;-67
2022/08/14 10:23:12;;;;;;;5.97;4.88;;;30.60;42.00;;;;;;5026514;28;20033;-71
2022/08/14 10:25:40;;;;;;;5.28;4.78;;;30.70;42.00;;;;;;5009445;28;20420;-67
2022/08/14 10:28:05;;;;;;;4.82;4.32;;;30.50;41.80;;;;;;5009816;28;20097;-69
2022/08/14 10:30:36;;;;;;;5.53;4.90;;;30.50;42.10;;;;;;5008597;28;20117;-71
2022/08/14 10:33:02;;;;;;;4.95;4.43;;;30.50;41.80;;;;;;5009318;28;20476;-66
2022/08/14 10:35:42;;;;;;;5.18;4.38;;;30.60;41.80;;;;;;5009625;28;20051;-67
2022/08/14 10:38:07;;;;;;;4.85;4.45;;;30.70;41.60;;;;;;5008054;28;20377;-68
2022/08/14 10:40:33;;;;;;;4.78;4.32;;;30.80;41.40;;;;;;5010690;28;20028;-67
2022/08/14 10:42:59;;;;;;;5.72;4.30;;;30.90;41.30;;;;;;5008698;28;20116;-70
2022/08/14 10:45:33;;;;;;;5.45;4.53;;;30.90;41.00;;;;;;5009230;28;20041;-67
2022/08/14 10:48:03;;;;;;;4.53;4.03;;;31.00;40.70;;;;;;5009005;28;20496;-67
2022/08/14 10:50:34;;;;;;;3.83;3.50;;;31.10;40.50;;;;;;5009229;28;20038;-67
2022/08/14 10:53:04;;;;;;;5.05;3.90;;;31.30;40.10;;;;;;5010202;28;20026;-67
2022/08/14 10:55:40;;;;;;;5.50;4.00;;;31.50;39.90;;;;;;5012988;28;20091;-67
2022/08/14 10:58:10;;;;;;;4.30;3.50;;;31.50;40.60;;;;;;5010549;28;20083;-68
2022/08/14 11:00:41;;;;;;;4.87;4.37;;;31.70;40.10;;;;;;5008580;28;20041;-68
2022/08/14 11:03:11;;;;;;;4.28;3.88;;;31.60;38.90;;;;;;5010850;28;20100;-67
2022/08/14 11:05:44;;;;;;;4.75;4.25;;;31.40;39.00;;;;;;5008820;28;20018;-67
2022/08/14 11:08:14;;;;;;;4.25;3.63;;;31.40;39.00;;;;;;5004826;28;20053;-68
2022/08/14 11:10:48;;;;;;;5.53;3.78;;;31.40;39.00;;;;;;5008617;28;20030;-68
2022/08/14 11:13:20;;;;;;;4.60;3.85;;;31.50;39.00;;;;;;5009593;28;20025;-68
2022/08/14 11:15:47;;;;;;;3.88;3.58;;;31.70;38.80;;;;;;5007634;28;20038;-67
2022/08/14 11:18:14;;;;;;;3.60;3.30;;;31.80;38.60;;;;;;5008892;28;20381;-67
2022/08/14 11:20:53;;;;;;;4.70;4.10;;;32.00;38.40;;;;;;5008560;28;20030;-67
2022/08/14 11:23:21;;;;;;;6.18;3.95;;;32.10;38.30;;;;;;5005761;28;20033;-67
2022/08/14 11:25:48;;;;;;;4.95;3.72;;;32.10;38.30;;;;;;5010522;28;20030;-68
2022/08/14 11:28:15;;;;;;;4.43;3.85;;;32.00;37.80;;;;;;5008308;28;20022;-67
2022/08/14 11:30:47;;;;;;;3.85;3.50;;;32.00;37.60;;;;;;5012412;28;20080;-68
2022/08/14 11:33:13;;;;;;;4.38;3.88;;;32.00;37.60;;;;;;5017429;28;20480;-68
2022/08/14 11:35:40;;;;;;;3.60;3.30;;;32.10;37.70;;;;;;5010755;28;20030;-70
2022/08/14 11:38:06;;;;;;;4.70;3.88;;;32.30;37.50;;;;;;5008667;28;20061;-69
2022/08/14 11:40:34;;;;;;;4.38;3.60;;;32.30;37.50;;;;;;5025521;28;20022;-68
2022/08/14 11:43:02;;;;;;;4.88;3.60;;;32.50;37.60;;;;;;5010084;28;20030;-68
2022/08/14 11:45:33;;;;;;;4.53;3.30;;;32.50;37.20;;;;;;5008549;28;20492;-69
2022/08/14 11:48:01;;;;;;;4.03;3.63;;;32.60;37.20;;;;;;5005100;28;20484;-67
2022/08/14 11:50:29;;;;;;;3.42;3.13;;;32.60;36.90;;;;;;5008983;28;20038;-65
2022/08/14 11:52:56;;;;;;;3.75;3.35;;;32.60;36.90;;;;;;5008884;28;20022;-68
2022/08/14 11:55:25;;;;;;;4.43;3.50;;;32.80;37.00;;;;;;5009608;28;20045;-66
2022/08/14 11:58:01;;;;;;;3.47;3.17;;;33.00;36.30;;;;;;5012213;28;20022;-67
2022/08/14 12:00:27;;;;;;;4.78;3.70;;;32.90;35.80;;;;;;5009045;28;20046;-67
2022/08/14 12:02:55;;;;;;;3.22;2.92;;;32.90;35.50;;;;;;5011633;28;20415;-66
2022/08/14 12:05:33;;;;;;;3.10;2.60;;;33.00;35.40;;;;;;5013487;28;20029;-66
2022/08/14 12:08:00;;;;;;;2.90;2.70;;;33.30;35.40;;;;;;5011720;28;20030;-67
2022/08/14 12:10:28;;;;;;;3.42;3.13;;;33.60;35.10;;;;;;5013379;28;20050;-66
2022/08/14 12:12:55;;;;;;;7.15;6.00;;;33.70;34.60;;;;;;5016312;28;20034;-67
2022/08/14 12:15:34;;;;;;;6.60;5.90;;;33.50;34.90;;;;;;5011356;28;20447;-66
2022/08/14 12:18:01;;;;;;;3.95;3.65;;;33.40;35.20;;;;;;5013812;28;20091;-67
2022/08/14 12:20:32;;;;;;;3.65;3.33;;;33.60;35.30;;;;;;5011916;28;20536;-67
2022/08/14 12:22:59;;;;;;;4.45;3.40;;;33.70;34.60;;;;;;5012046;28;20693;-67
2022/08/14 12:25:25;;;;;;;4.82;3.72;;;33.70;34.70;;;;;;5011617;28;20018;-67
2022/08/14 12:27:52;;;;;;;3.30;3.00;;;33.80;34.20;;;;;;5011608;28;20034;-68
2022/08/14 12:30:34;;;;;;;4.22;3.83;;;34.00;34.00;;;;;;5014465;28;20618;-67
2022/08/14 12:33:02;;;;;;;3.75;3.30;;;34.20;33.50;;;;;;5026430;28;20033;-66
2022/08/14 12:35:41;;;;;;;3.35;3.10;;;34.20;33.50;;;;;;5013410;28;20018;-67
2022/08/14 12:38:09;;;;;;;3.00;2.70;;;34.30;32.80;;;;;;5010803;28;20030;-67
2022/08/14 12:40:45;;;;;;;3.42;3.13;;;34.30;32.80;;;;;;5010073;28;20435;-69
2022/08/14 12:43:11;;;;;;;3.47;3.10;;;34.40;32.60;;;;;;5011076;28;20056;-67
2022/08/14 12:45:37;;;;;;;3.25;3.00;;;34.30;33.00;;;;;;5011360;28;20018;-69
2022/08/14 12:48:04;;;;;;;3.90;3.50;;;34.40;33.20;;;;;;5011824;28;20034;-66
2022/08/14 12:50:39;;;;;;;3.60;3.30;;;34.30;33.30;;;;;;5015392;28;20025;-67
2022/08/14 12:53:06;;;;;;;3.30;3.00;;;34.40;33.60;;;;;;5012158;28;20724;-66
2022/08/14 12:55:34;;;;;;;3.70;3.40;;;34.70;33.60;;;;;;5013503;28;20025;-67
2022/08/14 12:58:04;;;;;;;3.70;3.40;;;34.60;33.20;;;;;;5010789;28;20129;-69
2022/08/14 13:00:30;;;;;;;4.18;3.78;;;34.50;33.20;;;;;;5009086;28;20065;-68
2022/08/14 13:02:56;;;;;;;3.30;3.00;;;34.30;33.10;;;;;;5011038;28;20034;-67
2022/08/14 13:05:28;;;;;;;4.35;3.47;;;34.30;33.30;;;;;;5010999;28;20033;-67
2022/08/14 13:07:56;;;;;;;4.20;3.80;;;34.30;33.30;;;;;;5010355;28;20072;-66